createdAt,value
2022-11-20T00:01:59.871Z,995.94
2022-11-20T00:07:42.909Z,996.03
2022-11-20T00:13:26.017Z,996.09
2022-11-20T00:19:09.182Z,996.16
2022-11-20T00:24:52.222Z,996.1
2022-11-20T00:30:35.078Z,996.11
2022-11-20T00:36:18.978Z,996.12
2022-11-20T00:42:02.263Z,996.14
2022-11-20T00:47:45.108Z,996.17
2022-11-20T00:53:29.130Z,996.16
2022-11-20T00:59:12.100Z,996.21
2022-11-20T01:04:55.048Z,996.18
2022-11-20T01:10:38.180Z,996.11
2022-11-20T01:16:22.449Z,996.18
2022-11-20T01:22:05.433Z,996.17
2022-11-20T01:27:49.349Z,996.14
2022-11-20T01:33:34.274Z,996.17
2022-11-20T01:39:18.894Z,996.15
2022-11-20T01:45:02.785Z,996.16
2022-11-20T01:50:46.116Z,996.2
2022-11-20T01:56:30.133Z,996.21
2022-11-20T02:02:13.072Z,996.21
2022-11-20T02:07:58.890Z,996.23
2022-11-20T02:13:42.067Z,996.24
2022-11-20T02:19:27.857Z,996.21
2022-11-20T02:25:11.938Z,996.2
2022-11-20T02:30:54.771Z,996.17
2022-11-20T02:36:38.528Z,996.13
2022-11-20T02:42:22.348Z,996.15
2022-11-20T02:48:05.358Z,996.06
2022-11-20T02:53:48.469Z,996.02
2022-11-20T02:59:31.382Z,995.97
2022-11-20T03:05:14.308Z,995.9
2022-11-20T03:10:57.246Z,995.87
2022-11-20T03:16:40.293Z,995.82
2022-11-20T03:22:23.259Z,995.73
2022-11-20T03:28:06.258Z,995.81
2022-11-20T03:33:49.194Z,995.76
2022-11-20T03:39:32.258Z,995.75
2022-11-20T03:45:15.432Z,995.75
2022-11-20T03:51:03.275Z,995.72
2022-11-20T03:56:46.190Z,995.64
2022-11-20T04:02:29.235Z,995.59
2022-11-20T04:08:13.257Z,995.55
2022-11-20T04:13:57.080Z,995.44
2022-11-20T04:19:46.112Z,995.35
2022-11-20T04:25:30.102Z,995.36
2022-11-20T04:31:14.860Z,995.37
2022-11-20T04:36:58.717Z,995.35
2022-11-20T04:42:41.694Z,995.35
2022-11-20T04:48:25.475Z,995.29
2022-11-20T04:54:08.396Z,995.26
2022-11-20T04:59:52.433Z,995.27
2022-11-20T05:05:36.615Z,995.2
2022-11-20T05:11:20.616Z,995.17
2022-11-20T05:17:03.597Z,995.18
2022-11-20T05:22:46.889Z,995.28
2022-11-20T05:28:30.703Z,995.3
2022-11-20T05:34:14.696Z,995.26
2022-11-20T05:39:57.534Z,995.25
2022-11-20T05:45:40.591Z,995.18
2022-11-20T05:51:23.381Z,995.1
2022-11-20T05:57:06.180Z,995.14
2022-11-20T06:02:49.116Z,995.05
2022-11-20T06:08:32.634Z,994.98
2022-11-20T06:14:15.488Z,995.02
2022-11-20T06:19:58.794Z,994.9
2022-11-20T06:25:43.480Z,994.84
2022-11-20T06:31:26.829Z,994.82
2022-11-20T06:37:09.736Z,994.92
2022-11-20T06:42:52.705Z,994.95
2022-11-20T06:48:35.855Z,994.95
2022-11-20T06:54:19.031Z,994.96
2022-11-20T07:00:01.793Z,994.97
2022-11-20T07:05:45.629Z,994.93
2022-11-20T07:11:28.603Z,994.89
2022-11-20T07:17:11.559Z,994.9
2022-11-20T07:22:59.409Z,994.91
2022-11-20T07:28:45.424Z,994.9
2022-11-20T07:34:28.420Z,994.91
2022-11-20T07:40:11.963Z,994.85
2022-11-20T07:45:56.382Z,994.85
2022-11-20T07:51:39.423Z,994.85
2022-11-20T07:57:28.406Z,994.85
2022-11-20T08:03:11.956Z,994.76
2022-11-20T08:08:56.122Z,994.69
2022-11-20T08:14:39.109Z,994.7
2022-11-20T08:20:21.862Z,994.68
2022-11-20T08:26:06.770Z,994.59
2022-11-20T08:31:49.518Z,994.62
2022-11-20T08:37:32.451Z,994.62
2022-11-20T08:43:15.490Z,994.66
2022-11-20T08:48:58.386Z,994.6
2022-11-20T08:54:41.285Z,994.59
2022-11-20T09:00:24.342Z,994.62
2022-11-20T09:06:08.292Z,994.51
2022-11-20T09:11:51.361Z,994.45
2022-11-20T09:17:34.185Z,994.45
2022-11-20T09:23:17.448Z,994.36
2022-11-20T09:29:00.602Z,994.29
2022-11-20T09:34:43.745Z,994.16
2022-11-20T09:40:29.363Z,994.08
2022-11-20T09:46:16.176Z,993.96
2022-11-20T09:52:00.039Z,993.98
2022-11-20T09:57:44.598Z,993.97
2022-11-20T10:03:32.721Z,993.88
2022-11-20T10:09:22.830Z,993.93
2022-11-20T10:15:13.804Z,993.85
2022-11-20T10:21:02.378Z,993.86
2022-11-20T10:26:50.465Z,993.73
2022-11-20T10:32:36.721Z,993.63
2022-11-20T10:38:23.288Z,993.46
2022-11-20T10:44:11.505Z,993.43
2022-11-20T10:49:55.681Z,993.33
2022-11-20T10:55:42.659Z,993.28
2022-11-20T11:01:26.103Z,993.2
2022-11-20T11:07:13.924Z,993.16
2022-11-20T11:12:56.783Z,993.07
2022-11-20T11:18:39.797Z,993
2022-11-20T11:24:46.490Z,992.86
2022-11-20T11:30:25.141Z,992.8
2022-11-20T11:36:12.922Z,992.72
2022-11-20T11:41:55.735Z,992.61
2022-11-20T11:47:45.765Z,992.48
2022-11-20T11:53:29.523Z,992.29
2022-11-20T11:59:16.455Z,992.11
2022-11-20T12:05:02.212Z,992.06
2022-11-20T12:10:48.872Z,991.99
2022-11-20T12:16:34.259Z,991.86
2022-11-20T12:22:23.916Z,991.93
2022-11-20T12:28:26.334Z,991.7
2022-11-20T12:34:14.779Z,991.54
2022-11-20T12:40:00.845Z,991.38
2022-11-20T12:46:05.291Z,991.23
2022-11-20T12:51:58.773Z,991.09
2022-11-20T12:57:46.696Z,990.99
2022-11-20T13:03:45.022Z,990.8
2022-11-20T13:09:28.384Z,990.73
2022-11-20T13:15:17.695Z,990.68
2022-11-20T13:21:00.831Z,990.62
2022-11-20T13:26:43.684Z,990.52
2022-11-20T13:32:26.619Z,990.44
2022-11-20T13:38:12.120Z,990.48
2022-11-20T13:43:55.619Z,990.36
2022-11-20T13:49:45.583Z,990.15
2022-11-20T13:55:34.341Z,990.09
2022-11-20T14:01:21.924Z,989.99
2022-11-20T14:07:07.204Z,989.89
2022-11-20T14:12:51.488Z,989.8
2022-11-20T14:18:34.428Z,989.81
2022-11-20T14:24:20.572Z,989.79
2022-11-20T14:30:04.979Z,989.84
2022-11-20T14:35:49.615Z,989.79
2022-11-20T14:41:32.450Z,989.74
2022-11-20T14:47:19.081Z,989.65
2022-11-20T14:53:02.280Z,989.66
2022-11-20T14:58:45.005Z,989.6
2022-11-20T15:04:28.606Z,989.62
2022-11-20T15:10:13.974Z,989.63
2022-11-20T15:15:57.875Z,989.68
2022-11-20T15:21:40.595Z,989.69
2022-11-20T15:27:23.400Z,989.67
2022-11-20T15:33:06.743Z,989.73
2022-11-20T15:38:50.104Z,989.8
2022-11-20T15:44:32.980Z,989.81
2022-11-20T15:50:18.868Z,989.98
2022-11-20T15:56:02.031Z,989.99
2022-11-20T16:01:45.426Z,990.05
2022-11-20T16:07:28.814Z,990.07
2022-11-20T16:13:16.763Z,990.1
2022-11-20T16:18:59.909Z,990.1
2022-11-20T16:24:42.986Z,990.13
2022-11-20T16:30:26.241Z,990.21
2022-11-20T16:36:12.655Z,990.22
2022-11-20T16:41:55.378Z,990.2
2022-11-20T16:47:38.691Z,990.08
2022-11-20T16:53:22.669Z,990.16
2022-11-20T16:59:05.741Z,990.17
2022-11-20T17:04:48.552Z,990.24
2022-11-20T17:10:31.541Z,990.27
2022-11-20T17:16:16.315Z,990.31
2022-11-20T17:21:59.022Z,990.23
2022-11-20T17:27:42.022Z,990.26
2022-11-20T17:33:25.001Z,990.31
2022-11-20T17:39:08.001Z,990.21
2022-11-20T17:44:50.941Z,990.18
2022-11-20T17:50:34.954Z,990.16
2022-11-20T17:56:18.061Z,990.26
2022-11-20T18:02:04.724Z,990.35
2022-11-20T18:07:47.840Z,990.4
2022-11-20T18:13:30.710Z,990.42
2022-11-20T18:19:14.561Z,990.41
2022-11-20T18:24:57.547Z,990.44
2022-11-20T18:30:40.773Z,990.47
2022-11-20T18:36:24.379Z,990.44
2022-11-20T18:42:07.075Z,990.39
2022-11-20T18:47:49.945Z,990.45
2022-11-20T18:53:32.753Z,990.37
2022-11-20T18:59:15.993Z,990.41
2022-11-20T19:05:00.109Z,990.52
2022-11-20T19:10:43.040Z,990.45
2022-11-20T19:16:25.896Z,990.36
2022-11-20T19:22:08.975Z,990.46
2022-11-20T19:27:52.012Z,990.46
2022-11-20T19:33:35.501Z,990.46
2022-11-20T19:39:18.653Z,990.47
2022-11-20T19:45:01.750Z,990.5
2022-11-20T19:50:44.689Z,990.49
2022-11-20T19:56:29.057Z,990.54
2022-11-20T20:02:15.011Z,990.6
2022-11-20T20:07:59.149Z,990.67
2022-11-20T20:13:42.498Z,990.76
2022-11-20T20:19:26.027Z,990.77
2022-11-20T20:25:10.129Z,990.79
2022-11-20T20:30:54.928Z,990.93
2022-11-20T20:36:38.137Z,990.99
2022-11-20T20:42:21.058Z,991
2022-11-20T20:48:05.399Z,990.94
2022-11-20T20:53:48.391Z,991.08
2022-11-20T20:59:31.513Z,991.09
2022-11-20T21:05:14.587Z,991.11
2022-11-20T21:11:02.505Z,991.07
2022-11-20T21:16:46.598Z,991.08
2022-11-20T21:22:36.599Z,991.06
2022-11-20T21:28:22.543Z,991.09
2022-11-20T21:34:05.981Z,991.13
2022-11-20T21:39:48.856Z,991.08
2022-11-20T21:45:32.130Z,991.15
2022-11-20T21:51:15.872Z,991.15
2022-11-20T21:56:58.736Z,991.16
2022-11-20T22:02:42.809Z,991.23
2022-11-20T22:08:25.962Z,991.36
2022-11-20T22:14:09.949Z,991.37
2022-11-20T22:19:52.932Z,991.38
2022-11-20T22:25:35.927Z,991.32
2022-11-20T22:31:19.567Z,991.38
2022-11-20T22:37:02.601Z,991.4
2022-11-20T22:42:48.817Z,991.43
2022-11-20T22:48:31.862Z,991.45
2022-11-20T22:54:15.384Z,991.56
2022-11-20T22:59:58.705Z,991.55
2022-11-20T23:05:41.667Z,991.7
2022-11-20T23:11:25.631Z,991.72
2022-11-20T23:17:09.667Z,991.7
2022-11-20T23:22:52.574Z,991.64
2022-11-20T23:28:36.156Z,991.5
2022-11-20T23:34:19.160Z,991.49
2022-11-20T23:40:02.237Z,991.47
2022-11-20T23:45:46.699Z,991.39
2022-11-20T23:51:29.546Z,991.37
2022-11-20T23:57:12.484Z,991.36
